Time;durP1;ratioP1;P1;durP2;ratioP2;P2;SDS_P1;SDS_P2;PMS_P1;PMS_P2;Temp;Humidity;BMP_temperature;BMP_pressure;BME280_temperature;BME280_humidity;BME280_pressure;Samples;Min_cycle;Max_cycle;Signal;HPM_P1;HPM_P2
2022/07/31 00:01:50;;;;;;;2.60;1.10;;;22.50;65.30;;;;;;5042623;28;20033;-86
2022/07/31 00:04:16;;;;;;;3.33;1.30;;;22.40;65.50;;;;;;5077120;28;20024;-85
2022/07/31 00:06:42;;;;;;;2.33;1.23;;;22.40;65.60;;;;;;5076982;28;20036;-86
2022/07/31 00:09:08;;;;;;;3.58;1.63;;;22.30;65.70;;;;;;5059296;28;20067;-85
2022/07/31 00:11:33;;;;;;;4.63;1.70;;;22.40;65.90;;;;;;5059015;28;20032;-85
2022/07/31 00:13:59;;;;;;;3.80;1.52;;;22.30;66.20;;;;;;5059118;28;20028;-86
2022/07/31 00:16:25;;;;;;;4.03;1.65;;;22.30;66.30;;;;;;5058935;28;20033;-76
2022/07/31 00:18:50;;;;;;;5.43;1.77;;;22.20;66.40;;;;;;5042453;28;20040;-76
2022/07/31 00:21:17;;;;;;;4.15;1.48;;;22.20;66.50;;;;;;5058823;28;20496;-76
2022/07/31 00:23:43;;;;;;;5.10;1.52;;;22.20;66.50;;;;;;5076886;28;20029;-77
2022/07/31 00:26:08;;;;;;;5.90;1.35;;;22.20;66.60;;;;;;5058763;28;20025;-77
2022/07/31 00:28:36;;;;;;;5.38;1.67;;;22.10;66.60;;;;;;5041837;28;20025;-77
2022/07/31 00:31:02;;;;;;;4.47;1.40;;;22.10;66.80;;;;;;5075002;28;20025;-76
2022/07/31 00:33:27;;;;;;;3.33;1.40;;;22.10;66.90;;;;;;5058881;28;20047;-86
2022/07/31 00:35:53;;;;;;;2.22;1.20;;;22.10;67.20;;;;;;5058861;28;20385;-86
2022/07/31 00:38:18;;;;;;;6.75;1.77;;;22.10;67.40;;;;;;5075492;28;20036;-86
2022/07/31 00:40:46;;;;;;;3.10;1.27;;;22.00;67.40;;;;;;5025534;28;20028;-86
2022/07/31 00:43:13;;;;;;;4.70;1.02;;;22.00;67.60;;;;;;5076344;28;20067;-86
2022/07/31 00:45:39;;;;;;;3.10;1.30;;;22.00;67.70;;;;;;5076032;28;20032;-86
2022/07/31 00:48:05;;;;;;;3.85;1.20;;;22.00;67.70;;;;;;5058106;28;20047;-86
2022/07/31 00:50:31;;;;;;;4.55;1.55;;;21.90;67.80;;;;;;5058486;28;20055;-86
2022/07/31 00:52:56;;;;;;;2.70;1.40;;;22.00;68.10;;;;;;5055355;28;20547;-86
2022/07/31 00:55:22;;;;;;;3.67;1.38;;;21.90;68.60;;;;;;5080715;28;20025;-86
2022/07/31 00:57:48;;;;;;;5.85;1.33;;;21.80;69.00;;;;;;5034937;28;20036;-84
2022/07/31 01:00:14;;;;;;;3.95;1.35;;;21.80;69.20;;;;;;5041302;28;20028;-76
2022/07/31 01:02:40;;;;;;;4.20;1.85;;;21.80;69.10;;;;;;5074964;28;20053;-76
2022/07/31 01:05:06;;;;;;;9.48;2.63;;;21.70;69.20;;;;;;5075323;28;20040;-76
2022/07/31 01:07:32;;;;;;;4.68;2.05;;;21.60;69.40;;;;;;5057438;28;20105;-76
2022/07/31 01:09:59;;;;;;;5.32;2.30;;;21.60;69.40;;;;;;5054122;28;20029;-76
2022/07/31 01:13:10;;;;;;;4.97;2.28;;;21.60;69.60;;;;;;5075224;28;20016;-76
2022/07/31 01:15:37;;;;;;;4.07;2.03;;;21.50;69.90;;;;;;5053625;28;20032;-76
2022/07/31 01:18:05;;;;;;;4.40;2.05;;;21.40;69.80;;;;;;5057641;28;20031;-76
2022/07/31 01:20:32;;;;;;;5.45;2.05;;;21.40;69.90;;;;;;5058135;28;20032;-76
2022/07/31 01:23:31;;;;;;;5.25;1.88;;;21.40;70.00;;;;;;5057634;28;20013;-76
2022/07/31 01:25:59;;;;;;;4.60;2.28;;;21.30;70.60;;;;;;5057347;28;20020;-76
2022/07/31 01:28:30;;;;;;;6.13;2.58;;;21.30;70.90;;;;;;5075402;28;20074;-76
2022/07/31 01:31:05;;;;;;;3.90;2.13;;;21.30;71.10;;;;;;5057538;28;20111;-76
2022/07/31 01:33:37;;;;;;;5.35;2.40;;;21.20;71.50;;;;;;5058465;28;20035;-76
2022/07/31 01:36:11;;;;;;;5.50;2.10;;;21.20;71.90;;;;;;5076933;28;20103;-76
2022/07/31 01:38:42;;;;;;;4.65;2.60;;;21.10;72.30;;;;;;5058683;28;20024;-77
2022/07/31 01:41:12;;;;;;;5.70;2.25;;;21.20;72.60;;;;;;5058722;28;20590;-77
2022/07/31 01:43:42;;;;;;;4.50;2.13;;;21.10;72.90;;;;;;5077609;28;20024;-76
2022/07/31 01:46:14;;;;;;;5.55;2.45;;;21.10;73.30;;;;;;5058066;28;20107;-76
2022/07/31 01:48:41;;;;;;;3.85;2.08;;;21.10;73.60;;;;;;5075231;28;20017;-76
2022/07/31 01:51:09;;;;;;;9.00;2.65;;;21.10;73.90;;;;;;5075275;28;20025;-85
2022/07/31 01:53:37;;;;;;;4.35;2.00;;;21.10;74.20;;;;;;5058056;28;20027;-86
2022/07/31 01:56:04;;;;;;;4.88;2.45;;;21.00;74.50;;;;;;5075260;28;20103;-85
2022/07/31 01:58:39;;;;;;;4.78;2.47;;;21.10;74.80;;;;;;5057012;28;20029;-86
2022/07/31 02:01:08;;;;;;;8.30;2.40;;;21.00;75.30;;;;;;5075111;28;20031;-84
2022/07/31 02:03:35;;;;;;;6.43;2.55;;;21.00;75.60;;;;;;5056856;28;20507;-85
2022/07/31 02:06:02;;;;;;;6.15;2.58;;;21.00;75.90;;;;;;5074640;28;20037;-86
2022/07/31 02:08:30;;;;;;;5.50;2.13;;;21.00;76.20;;;;;;5075818;28;20028;-85
2022/07/31 02:10:58;;;;;;;7.07;2.08;;;21.00;76.30;;;;;;5057629;28;20381;-85
2022/07/31 02:13:25;;;;;;;5.18;2.20;;;21.00;76.70;;;;;;5075780;28;20028;-85
2022/07/31 02:15:52;;;;;;;4.15;2.13;;;21.00;76.10;;;;;;5074471;28;20024;-85
2022/07/31 02:18:20;;;;;;;5.88;2.10;;;20.90;75.90;;;;;;5074673;28;20380;-85
2022/07/31 02:20:48;;;;;;;4.22;2.42;;;21.00;75.80;;;;;;5056880;28;20054;-85
2022/07/31 02:23:14;;;;;;;6.38;2.42;;;20.90;75.70;;;;;;5074423;28;20031;-85
2022/07/31 02:25:40;;;;;;;5.57;2.28;;;20.90;75.80;;;;;;5056653;28;20020;-85
2022/07/31 02:28:12;;;;;;;7.03;2.60;;;20.90;75.90;;;;;;5074413;28;20146;-85
2022/07/31 02:30:41;;;;;;;5.85;2.20;;;21.00;76.10;;;;;;5056398;28;20021;-76
2022/07/31 02:33:10;;;;;;;3.60;2.40;;;20.90;76.20;;;;;;5056399;28;20028;-76
2022/07/31 02:35:38;;;;;;;7.40;2.50;;;20.90;76.40;;;;;;5074470;28;20027;-86
2022/07/31 02:38:04;;;;;;;6.10;2.60;;;20.90;76.50;;;;;;5074432;28;20024;-86
2022/07/31 02:40:30;;;;;;;4.38;2.28;;;20.90;76.60;;;;;;5074191;28;20025;-86
2022/07/31 02:42:56;;;;;;;7.05;2.67;;;20.90;76.70;;;;;;5056546;28;20127;-85
2022/07/31 02:45:22;;;;;;;6.40;2.92;;;20.80;76.80;;;;;;5057151;28;20055;-86
2022/07/31 02:47:48;;;;;;;4.57;2.47;;;20.80;76.90;;;;;;5073842;28;20033;-76
2022/07/31 02:50:15;;;;;;;4.82;2.63;;;20.80;77.10;;;;;;5056039;28;20032;-76
2022/07/31 02:52:42;;;;;;;4.85;2.53;;;20.80;77.40;;;;;;5055847;28;20111;-76
2022/07/31 02:55:09;;;;;;;5.90;2.63;;;20.70;77.60;;;;;;5056340;28;20035;-76
2022/07/31 02:57:35;;;;;;;5.30;2.97;;;20.80;77.80;;;;;;5073635;28;20028;-76
2022/07/31 03:00:00;;;;;;;4.50;2.92;;;20.70;78.10;;;;;;5055870;28;20033;-76
2022/07/31 03:02:26;;;;;;;6.13;2.95;;;20.70;78.50;;;;;;5055276;28;20044;-76
2022/07/31 03:04:52;;;;;;;5.80;2.55;;;20.70;78.60;;;;;;5056167;28;20052;-76
2022/07/31 03:07:18;;;;;;;4.57;2.28;;;20.70;79.00;;;;;;5073427;28;20062;-76
2022/07/31 03:09:43;;;;;;;5.50;2.55;;;20.70;79.20;;;;;;5055652;28;20048;-76
2022/07/31 03:12:09;;;;;;;5.20;2.63;;;20.70;79.60;;;;;;5073887;28;20025;-76
2022/07/31 03:14:36;;;;;;;4.82;2.60;;;20.70;80.00;;;;;;5055533;28;20055;-76
2022/07/31 03:17:03;;;;;;;9.50;3.13;;;20.60;80.80;;;;;;5055534;28;20475;-76
2022/07/31 03:19:31;;;;;;;6.65;2.55;;;20.60;80.30;;;;;;5073520;28;20025;-76
2022/07/31 03:21:58;;;;;;;6.07;2.88;;;20.60;80.30;;;;;;5073664;28;20036;-76
2022/07/31 03:24:25;;;;;;;7.32;3.20;;;20.60;80.40;;;;;;5055408;28;20024;-76
2022/07/31 03:26:51;;;;;;;5.13;2.80;;;20.60;80.50;;;;;;5073404;28;20017;-76
2022/07/31 03:29:17;;;;;;;6.88;2.70;;;20.60;80.50;;;;;;5055276;28;20045;-76
2022/07/31 03:31:43;;;;;;;8.10;2.63;;;20.50;80.40;;;;;;5073373;28;20017;-76
2022/07/31 03:34:10;;;;;;;7.25;3.10;;;20.50;80.40;;;;;;5055891;28;20047;-76
2022/07/31 03:36:36;;;;;;;7.15;3.60;;;20.40;80.20;;;;;;5055074;28;20036;-76
2022/07/31 03:39:02;;;;;;;4.63;3.13;;;20.40;80.10;;;;;;5055437;28;20029;-76
2022/07/31 03:41:27;;;;;;;5.82;3.72;;;20.40;80.20;;;;;;5055459;28;20028;-76
2022/07/31 03:43:53;;;;;;;6.78;3.55;;;20.40;80.20;;;;;;5038776;28;20082;-76
2022/07/31 03:46:20;;;;;;;8.52;4.68;;;20.30;80.10;;;;;;5055164;28;20029;-76
2022/07/31 03:48:46;;;;;;;9.48;4.28;;;20.30;80.00;;;;;;5055524;28;20048;-76
2022/07/31 03:51:13;;;;;;;6.97;4.60;;;20.30;80.00;;;;;;5073186;28;20025;-76
2022/07/31 03:53:39;;;;;;;6.63;4.25;;;20.20;80.00;;;;;;5073120;28;20024;-76
2022/07/31 03:56:05;;;;;;;8.88;5.18;;;20.20;80.20;;;;;;5055651;28;20052;-86
2022/07/31 03:58:31;;;;;;;9.13;5.03;;;20.10;80.30;;;;;;5073364;28;20126;-86
2022/07/31 04:00:58;;;;;;;8.90;5.88;;;20.10;80.40;;;;;;5073297;28;20044;-85
2022/07/31 04:03:30;;;;;;;8.65;5.88;;;20.10;80.50;;;;;;5072216;28;20045;-85
2022/07/31 04:05:55;;;;;;;9.15;6.35;;;20.10;80.50;;;;;;5073104;28;20473;-85
2022/07/31 04:08:21;;;;;;;10.50;7.03;;;20.00;80.40;;;;;;5055103;28;20021;-86
2022/07/31 04:10:47;;;;;;;8.35;5.72;;;20.00;80.50;;;;;;5073083;28;20378;-85
2022/07/31 04:13:12;;;;;;;10.10;6.07;;;20.00;80.60;;;;;;5054572;28;20028;-85
2022/07/31 04:15:38;;;;;;;10.32;5.95;;;20.00;80.70;;;;;;5072953;28;20029;-85
2022/07/31 04:18:04;;;;;;;9.15;6.45;;;19.90;80.80;;;;;;5072729;28;20035;-85
2022/07/31 04:20:29;;;;;;;9.10;6.57;;;19.90;80.80;;;;;;5072998;28;20031;-85
2022/07/31 04:22:55;;;;;;;8.00;6.05;;;19.90;80.80;;;;;;5088671;28;20032;-85
2022/07/31 04:25:20;;;;;;;9.98;5.53;;;19.90;80.80;;;;;;5071807;28;20040;-84
2022/07/31 04:27:46;;;;;;;11.10;6.50;;;19.90;81.10;;;;;;5072891;28;20090;-83
2022/07/31 04:30:12;;;;;;;9.50;6.22;;;19.80;81.20;;;;;;5091770;28;20024;-85
2022/07/31 04:32:37;;;;;;;9.63;5.57;;;19.80;81.30;;;;;;5092029;28;20035;-84
2022/07/31 04:35:05;;;;;;;14.15;6.43;;;19.80;81.50;;;;;;5075189;28;20025;-85
2022/07/31 04:37:31;;;;;;;10.68;5.97;;;19.80;81.60;;;;;;5092153;28;20070;-85
2022/07/31 04:39:57;;;;;;;9.07;5.32;;;19.80;81.80;;;;;;5076415;28;20017;-84
2022/07/31 04:42:22;;;;;;;9.18;5.15;;;19.80;81.80;;;;;;5075224;28;20033;-86
2022/07/31 04:44:48;;;;;;;12.05;5.72;;;19.80;81.90;;;;;;5076345;28;20119;-86
2022/07/31 04:47:14;;;;;;;9.63;5.65;;;19.80;82.00;;;;;;5092054;28;20033;-85
2022/07/31 04:49:39;;;;;;;8.40;5.03;;;19.80;82.20;;;;;;5076531;28;20017;-85
2022/07/31 04:52:05;;;;;;;7.38;4.75;;;19.80;82.20;;;;;;5091645;28;20025;-76
2022/07/31 04:54:31;;;;;;;9.18;5.47;;;19.80;82.30;;;;;;5057875;28;20098;-76
2022/07/31 04:56:57;;;;;;;10.07;5.45;;;19.80;82.50;;;;;;5074522;28;20033;-76
2022/07/31 04:59:23;;;;;;;11.75;5.53;;;19.90;82.60;;;;;;5091402;28;20050;-76
2022/07/31 05:01:49;;;;;;;7.55;4.97;;;19.90;82.70;;;;;;5074821;28;20078;-76
2022/07/31 05:04:15;;;;;;;7.93;4.57;;;19.90;82.80;;;;;;5057791;28;20048;-76
2022/07/31 05:06:44;;;;;;;8.80;4.55;;;19.90;82.90;;;;;;5074480;28;20036;-76
2022/07/31 05:09:18;;;;;;;9.02;4.82;;;19.90;83.00;;;;;;5057609;28;20043;-77
2022/07/31 05:11:48;;;;;;;7.32;4.30;;;19.90;83.20;;;;;;5075748;28;20472;-76
2022/07/31 05:14:15;;;;;;;9.20;4.75;;;20.00;83.40;;;;;;5075645;28;20021;-76
2022/07/31 05:16:41;;;;;;;7.55;4.72;;;20.00;83.40;;;;;;5075613;28;20083;-76
2022/07/31 05:19:07;;;;;;;10.75;4.57;;;20.10;83.60;;;;;;5091511;28;20025;-76
2022/07/31 05:21:33;;;;;;;5.72;3.90;;;20.10;83.70;;;;;;5091268;28;20549;-76
2022/07/31 05:23:59;;;;;;;10.10;4.68;;;20.20;83.80;;;;;;5075550;28;20029;-77
2022/07/31 05:26:26;;;;;;;8.05;4.22;;;20.20;83.80;;;;;;5091009;28;20028;-77
2022/07/31 05:28:55;;;;;;;8.55;4.90;;;20.30;83.80;;;;;;5057654;28;20027;-77
2022/07/31 05:31:21;;;;;;;7.45;5.10;;;20.30;83.80;;;;;;5075496;28;20067;-76
2022/07/31 05:33:48;;;;;;;8.98;5.32;;;20.40;84.00;;;;;;5057305;28;20029;-77
2022/07/31 05:36:15;;;;;;;10.40;6.22;;;20.40;84.00;;;;;;5075459;28;20031;-77
2022/07/31 05:38:41;;;;;;;12.93;6.60;;;20.50;84.00;;;;;;5091034;28;20490;-77
2022/07/31 05:41:06;;;;;;;13.32;7.05;;;20.50;84.10;;;;;;5090144;28;20495;-76
2022/07/31 05:43:32;;;;;;;14.05;6.25;;;20.50;84.10;;;;;;5090873;28;20041;-76
2022/07/31 05:45:58;;;;;;;12.20;6.88;;;20.50;84.10;;;;;;5090741;28;20044;-76
2022/07/31 05:48:24;;;;;;;10.32;7.25;;;20.50;84.20;;;;;;5071942;28;20488;-77
2022/07/31 05:50:50;;;;;;;12.13;7.60;;;20.50;84.10;;;;;;5056157;28;20120;-76
2022/07/31 05:53:17;;;;;;;15.32;7.75;;;20.40;84.20;;;;;;5069834;28;20021;-76
2022/07/31 05:55:44;;;;;;;11.63;8.32;;;20.40;84.90;;;;;;5069490;28;20070;-75
2022/07/31 05:58:11;;;;;;;15.57;10.00;;;20.40;84.40;;;;;;5055412;28;20029;-76
2022/07/31 06:00:37;;;;;;;10.88;7.55;;;20.40;84.50;;;;;;5071307;28;20406;-75
2022/07/31 06:03:03;;;;;;;12.45;7.72;;;20.40;84.40;;;;;;5051391;28;20029;-76
2022/07/31 06:05:29;;;;;;;12.20;8.82;;;20.30;84.40;;;;;;5051373;28;20029;-76
2022/07/31 06:07:55;;;;;;;15.77;8.48;;;20.30;84.60;;;;;;5086182;28;20032;-76
2022/07/31 06:10:21;;;;;;;14.30;8.68;;;20.30;84.60;;;;;;5051745;28;20017;-76
2022/07/31 06:12:48;;;;;;;13.23;8.35;;;20.30;85.40;;;;;;5049504;28;20028;-76
2022/07/31 06:15:13;;;;;;;14.20;8.55;;;20.20;84.80;;;;;;5038182;28;20022;-76
2022/07/31 06:17:41;;;;;;;15.75;7.78;;;20.30;84.80;;;;;;5033590;28;20033;-75
2022/07/31 06:20:07;;;;;;;13.52;7.60;;;20.20;84.90;;;;;;5073140;28;20044;-76
2022/07/31 06:22:33;;;;;;;11.07;8.10;;;20.20;85.00;;;;;;5053430;28;20079;-76
2022/07/31 06:24:58;;;;;;;12.35;7.57;;;20.30;85.00;;;;;;5052463;28;20408;-77
2022/07/31 06:27:24;;;;;;;13.65;9.30;;;20.30;85.10;;;;;;5069257;28;20416;-76
2022/07/31 06:29:50;;;;;;;13.05;8.20;;;20.30;85.10;;;;;;5053078;28;20082;-77
2022/07/31 06:32:15;;;;;;;14.65;9.48;;;20.30;85.10;;;;;;5069300;28;20025;-77
2022/07/31 06:34:41;;;;;;;15.43;9.00;;;20.30;85.90;;;;;;5055308;28;20028;-77
2022/07/31 06:37:07;;;;;;;12.02;7.55;;;20.30;85.30;;;;;;5064878;28;20083;-76
2022/07/31 06:39:33;;;;;;;10.68;7.90;;;20.40;85.40;;;;;;5044250;28;20028;-76
2022/07/31 06:41:59;;;;;;;13.63;8.80;;;20.40;85.50;;;;;;5056635;28;20531;-77
2022/07/31 06:44:25;;;;;;;11.88;8.43;;;20.40;85.50;;;;;;5074272;28;20033;-76
2022/07/31 06:46:50;;;;;;;13.15;7.97;;;20.50;86.20;;;;;;5067887;28;20116;-77
2022/07/31 06:49:17;;;;;;;12.55;8.48;;;20.50;85.40;;;;;;5053814;28;20021;-76
2022/07/31 06:51:43;;;;;;;12.05;8.48;;;20.50;85.30;;;;;;5052213;28;20052;-76
2022/07/31 06:54:10;;;;;;;12.50;8.57;;;20.50;85.30;;;;;;5052746;28;20480;-77
2022/07/31 06:56:38;;;;;;;13.95;9.27;;;20.60;85.50;;;;;;5050533;28;20086;-77
2022/07/31 06:59:05;;;;;;;13.75;9.80;;;20.60;85.40;;;;;;5035068;28;20026;-77
2022/07/31 07:01:31;;;;;;;15.00;9.55;;;20.50;85.20;;;;;;5057348;28;20168;-76
2022/07/31 07:03:57;;;;;;;13.52;8.85;;;20.60;85.30;;;;;;5062421;28;20037;-76
2022/07/31 07:06:23;;;;;;;16.85;10.48;;;20.60;85.20;;;;;;5037044;28;20037;-77
2022/07/31 07:08:50;;;;;;;13.90;9.35;;;20.60;85.20;;;;;;5067098;28;20032;-76
2022/07/31 07:11:15;;;;;;;15.50;11.10;;;20.50;85.10;;;;;;5076074;28;20032;-77
2022/07/31 07:13:41;;;;;;;15.32;10.48;;;20.60;85.20;;;;;;5093738;28;20016;-77
2022/07/31 07:16:07;;;;;;;17.08;10.00;;;20.50;85.80;;;;;;5058639;28;20043;-77
2022/07/31 07:18:33;;;;;;;12.05;9.23;;;20.60;85.10;;;;;;5093581;28;20031;-76
2022/07/31 07:20:58;;;;;;;15.00;9.02;;;20.60;85.10;;;;;;5075627;28;20032;-76
2022/07/31 07:23:24;;;;;;;14.20;8.88;;;20.60;85.10;;;;;;5092437;28;20070;-76
2022/07/31 07:25:50;;;;;;;11.50;9.45;;;20.60;85.10;;;;;;5093335;28;20024;-76
2022/07/31 07:28:16;;;;;;;13.52;9.60;;;20.60;85.00;;;;;;5074942;28;20030;-79
2022/07/31 07:30:42;;;;;;;12.07;8.93;;;20.60;85.10;;;;;;5022579;28;20411;-79
2022/07/31 07:33:08;;;;;;;14.43;8.73;;;20.60;85.10;;;;;;5039007;28;20368;-79
2022/07/31 07:35:33;;;;;;;12.55;8.18;;;20.60;85.20;;;;;;5038703;28;20077;-79
2022/07/31 07:37:59;;;;;;;12.45;7.80;;;20.70;85.40;;;;;;5055139;28;20016;-79
2022/07/31 07:40:25;;;;;;;12.63;7.82;;;20.80;85.50;;;;;;5073126;28;20033;-78
2022/07/31 07:42:52;;;;;;;15.20;9.35;;;20.80;85.40;;;;;;5035176;28;20565;-78
2022/07/31 07:45:18;;;;;;;11.27;7.40;;;20.90;85.40;;;;;;5051902;28;20041;-78
2022/07/31 07:47:43;;;;;;;11.85;7.13;;;20.90;85.30;;;;;;5018722;28;20036;-78
2022/07/31 07:50:11;;;;;;;15.27;7.13;;;20.90;85.10;;;;;;5051857;28;20466;-78
2022/07/31 07:52:37;;;;;;;10.50;6.75;;;21.00;85.30;;;;;;5056928;28;20111;-79
2022/07/31 07:55:04;;;;;;;10.77;7.25;;;21.00;85.10;;;;;;5055354;28;20039;-78
2022/07/31 07:57:30;;;;;;;12.60;7.63;;;21.00;85.20;;;;;;5065899;28;20028;-78
2022/07/31 08:00:00;;;;;;;10.52;6.53;;;21.00;85.40;;;;;;5047912;28;20120;-77
2022/07/31 08:02:25;;;;;;;11.07;7.03;;;21.00;85.30;;;;;;5035396;28;20040;-78
2022/07/31 08:04:51;;;;;;;11.98;6.70;;;21.10;85.40;;;;;;5038373;28;20461;-78
2022/07/31 08:07:25;;;;;;;11.70;7.55;;;21.10;85.40;;;;;;5055442;28;20037;-78
2022/07/31 08:09:51;;;;;;;9.85;6.60;;;21.20;85.50;;;;;;5063381;28;20090;-79
2022/07/31 08:12:16;;;;;;;11.25;7.82;;;21.20;85.50;;;;;;5058832;28;20389;-79
2022/07/31 08:14:42;;;;;;;10.32;6.80;;;21.20;85.50;;;;;;5042188;28;20056;-79
2022/07/31 08:17:11;;;;;;;10.68;6.40;;;21.20;85.50;;;;;;5058699;28;20048;-79
2022/07/31 08:19:37;;;;;;;10.95;7.05;;;21.30;86.20;;;;;;5059030;28;20032;-79
2022/07/31 08:22:02;;;;;;;8.93;5.97;;;21.30;85.50;;;;;;5076620;28;20590;-79
2022/07/31 08:24:28;;;;;;;10.95;6.55;;;21.30;85.40;;;;;;5058495;28;20388;-78
2022/07/31 08:29:38;;;;;;;;;;;21.40;85.40;;;;;;5061955;28;20074;-79
2022/07/31 08:32:03;;;;;;;9.90;6.40;;;21.40;85.50;;;;;;5076281;28;19904;-79
2022/07/31 08:34:29;;;;;;;10.93;6.38;;;21.50;85.30;;;;;;5058219;28;20024;-77
2022/07/31 08:36:55;;;;;;;10.63;6.97;;;21.60;85.30;;;;;;5042138;28;20033;-80
2022/07/31 08:39:20;;;;;;;10.40;6.72;;;21.70;85.10;;;;;;5058352;28;20038;-79
2022/07/31 08:41:46;;;;;;;12.15;6.35;;;21.80;85.00;;;;;;5058382;28;20384;-85
2022/07/31 08:44:12;;;;;;;9.00;6.38;;;21.90;84.90;;;;;;5076005;28;20020;-83
2022/07/31 08:46:38;;;;;;;9.43;6.47;;;22.00;84.70;;;;;;5057985;28;20040;-82
2022/07/31 08:49:05;;;;;;;10.40;6.53;;;22.10;84.50;;;;;;5076151;28;20025;-84
2022/07/31 08:51:36;;;;;;;11.32;7.18;;;22.20;84.40;;;;;;5058022;28;20033;-83
2022/07/31 08:54:07;;;;;;;11.57;6.70;;;22.40;84.20;;;;;;5074848;28;20052;-84
2022/07/31 08:56:34;;;;;;;11.20;7.30;;;22.50;83.70;;;;;;5076063;28;20103;-83
2022/07/31 08:59:00;;;;;;;11.85;6.78;;;22.60;83.20;;;;;;5025246;28;20480;-84
2022/07/31 09:01:26;;;;;;;8.85;6.38;;;22.80;82.70;;;;;;5058238;28;20039;-84
2022/07/31 09:03:53;;;;;;;9.35;6.05;;;22.80;82.40;;;;;;5058007;28;20037;-84
2022/07/31 09:06:19;;;;;;;9.82;5.68;;;22.90;82.20;;;;;;5075727;28;20037;-82
2022/07/31 09:08:45;;;;;;;10.23;5.60;;;22.90;81.90;;;;;;5075571;28;20090;-84
2022/07/31 09:11:12;;;;;;;10.43;6.57;;;23.00;81.40;;;;;;5074501;28;20025;-84
2022/07/31 09:13:38;;;;;;;11.13;6.25;;;23.00;81.30;;;;;;5075731;28;20095;-83
2022/07/31 09:16:04;;;;;;;11.60;6.80;;;23.10;81.20;;;;;;5040201;28;20114;-83
2022/07/31 09:18:31;;;;;;;9.18;5.57;;;23.10;81.10;;;;;;5075610;28;20051;-84
2022/07/31 09:21:02;;;;;;;12.05;7.10;;;23.20;80.80;;;;;;5075644;28;20020;-83
2022/07/31 09:23:29;;;;;;;10.57;6.28;;;23.20;80.50;;;;;;5057504;28;20028;-83
2022/07/31 09:25:57;;;;;;;11.10;5.95;;;23.10;80.40;;;;;;5075479;28;20029;-84
2022/07/31 09:28:43;;;;;;;11.77;6.20;;;23.10;80.30;;;;;;5041052;28;20024;-84
2022/07/31 09:31:10;;;;;;;11.25;6.68;;;23.10;80.20;;;;;;5057342;28;20031;-79
2022/07/31 09:33:38;;;;;;;9.25;5.80;;;23.20;80.30;;;;;;5057492;28;20025;-77
2022/07/31 09:36:04;;;;;;;8.82;6.03;;;23.10;80.10;;;;;;5041645;28;20043;-77
2022/07/31 09:38:39;;;;;;;10.88;6.35;;;23.20;80.30;;;;;;5040635;28;20028;-78
2022/07/31 09:41:13;;;;;;;8.65;5.97;;;23.20;80.40;;;;;;5075042;28;20013;-78
2022/07/31 09:43:39;;;;;;;9.77;6.10;;;23.30;80.60;;;;;;5074992;28;20100;-79
2022/07/31 09:46:06;;;;;;;10.23;6.75;;;23.30;80.60;;;;;;5041016;28;20031;-77
2022/07/31 09:48:33;;;;;;;12.23;7.43;;;23.30;80.80;;;;;;5057402;28;20052;-78
2022/07/31 09:51:04;;;;;;;10.60;6.22;;;23.20;80.90;;;;;;5074885;28;20021;-78
2022/07/31 09:53:41;;;;;;;9.55;6.43;;;23.20;81.10;;;;;;5074683;28;20017;-80
2022/07/31 09:56:11;;;;;;;12.90;6.80;;;23.10;81.70;;;;;;5056958;28;20021;-78
2022/07/31 09:58:37;;;;;;;11.90;8.00;;;23.10;82.20;;;;;;5041003;28;20115;-80
2022/07/31 10:01:03;;;;;;;12.00;8.57;;;23.00;82.60;;;;;;5040317;28;20452;-78
2022/07/31 10:03:30;;;;;;;10.15;7.32;;;22.90;82.90;;;;;;5056356;28;20037;-80
2022/07/31 10:05:57;;;;;;;13.38;8.45;;;23.00;83.50;;;;;;5056382;28;20032;-80
2022/07/31 10:08:23;;;;;;;13.52;8.15;;;22.90;83.90;;;;;;5040252;28;20373;-81
2022/07/31 10:10:52;;;;;;;11.68;8.10;;;22.90;84.30;;;;;;5056503;28;20017;-81
2022/07/31 10:13:19;;;;;;;14.48;9.50;;;22.80;85.20;;;;;;5056630;28;20021;-88
2022/07/31 10:15:47;;;;;;;13.43;9.35;;;22.80;86.20;;;;;;5040181;28;20029;-88
2022/07/31 10:18:16;;;;;;;14.10;10.02;;;22.80;87.30;;;;;;5074873;28;20021;-88
2022/07/31 10:20:51;;;;;;;12.35;9.40;;;22.80;87.00;;;;;;5040214;28;20036;-90
2022/07/31 10:23:25;;;;;;;11.70;9.40;;;22.80;87.40;;;;;;5057154;28;20012;-89
2022/07/31 10:25:58;;;;;;;15.38;11.05;;;22.90;87.40;;;;;;5074890;28;20043;-89
2022/07/31 10:28:24;;;;;;;;;;;22.90;87.30;;;;;;5056950;28;20025;-81
2022/07/31 10:30:50;;;;;;;13.10;9.35;;;22.90;87.50;;;;;;5056457;28;19989;-81
2022/07/31 10:33:17;;;;;;;14.95;10.73;;;22.90;87.20;;;;;;5074232;28;20032;-80
2022/07/31 10:36:13;;;;;;;14.88;11.48;;;22.90;87.10;;;;;;5056000;28;20044;-81
2022/07/31 10:38:59;;;;;;;15.52;11.60;;;23.00;87.20;;;;;;5056060;28;20028;-80
2022/07/31 10:41:56;;;;;;;15.13;11.05;;;23.00;87.00;;;;;;5055859;28;20027;-81
2022/07/31 10:44:34;;;;;;;13.85;10.80;;;23.10;87.20;;;;;;5056258;28;20013;-81
2022/07/31 10:47:11;;;;;;;13.88;10.85;;;23.20;87.30;;;;;;5055787;28;20061;-81
2022/07/31 10:49:46;;;;;;;17.30;10.13;;;23.30;87.50;;;;;;5055925;28;20104;-82
2022/07/31 10:52:14;;;;;;;12.43;11.10;;;23.60;87.40;;;;;;5039320;28;20028;-82
2022/07/31 10:54:45;;;;;;;14.20;11.85;;;23.80;86.60;;;;;;5039199;28;20031;-82
2022/07/31 10:57:25;;;;;;;17.75;12.43;;;23.90;85.80;;;;;;5039091;28;20029;-81
2022/07/31 10:59:51;;;;;;;14.23;11.65;;;24.00;85.30;;;;;;5055703;28;20078;-81
2022/07/31 11:02:28;;;;;;;14.60;10.68;;;24.00;84.60;;;;;;5073264;28;20067;-82
2022/07/31 11:05:14;;;;;;;12.07;10.60;;;23.90;84.20;;;;;;5055364;28;20032;-81
2022/07/31 11:07:44;;;;;;;15.05;13.00;;;24.00;84.20;;;;;;5039453;28;20037;-80
2022/07/31 11:10:13;;;;;;;15.48;12.85;;;23.90;83.70;;;;;;5055760;28;20056;-82
2022/07/31 11:12:39;;;;;;;15.18;13.00;;;23.80;83.40;;;;;;5055567;28;20027;-81
2022/07/31 11:15:17;;;;;;;17.52;14.43;;;23.70;83.60;;;;;;5039103;28;20012;-80
2022/07/31 11:17:43;;;;;;;16.95;13.57;;;23.60;83.90;;;;;;5073424;28;20052;-79
2022/07/31 11:20:23;;;;;;;16.48;13.07;;;23.60;84.20;;;;;;5022731;28;20105;-78
2022/07/31 11:23:00;;;;;;;15.32;12.38;;;23.60;84.40;;;;;;5055757;28;20089;-78
2022/07/31 11:25:28;;;;;;;15.18;13.57;;;23.60;84.40;;;;;;5055629;28;20421;-79
2022/07/31 11:27:55;;;;;;;13.82;12.43;;;23.70;84.40;;;;;;5073725;28;20054;-79
2022/07/31 11:30:21;;;;;;;14.38;12.88;;;23.80;84.60;;;;;;5039625;28;20028;-79
2022/07/31 11:32:51;;;;;;;13.80;11.13;;;23.90;84.50;;;;;;5055646;28;20485;-80
2022/07/31 11:35:28;;;;;;;15.05;12.10;;;24.00;84.20;;;;;;5055756;28;20071;-77
2022/07/31 11:37:55;;;;;;;13.48;12.00;;;24.00;84.00;;;;;;5055961;28;20111;-75
2022/07/31 11:40:21;;;;;;;15.82;13.60;;;24.00;84.00;;;;;;5059147;28;20047;-75
2022/07/31 11:42:48;;;;;;;13.88;11.90;;;23.90;84.00;;;;;;5060278;28;20063;-76
2022/07/31 11:45:14;;;;;;;12.60;11.25;;;23.90;84.10;;;;;;5060172;28;20217;-76
2022/07/31 11:47:43;;;;;;;13.35;11.20;;;23.90;84.30;;;;;;5076875;28;20040;-75
2022/07/31 11:50:09;;;;;;;13.52;11.63;;;23.90;84.10;;;;;;5059870;28;20031;-81
2022/07/31 11:52:35;;;;;;;12.52;11.15;;;24.00;84.10;;;;;;5060247;28;20108;-81
2022/07/31 11:55:12;;;;;;;12.90;11.20;;;24.10;84.20;;;;;;5077483;28;20028;-81
2022/07/31 11:57:38;;;;;;;13.27;10.10;;;24.30;84.20;;;;;;5059234;28;20058;-82
2022/07/31 12:00:12;;;;;;;11.45;8.60;;;24.50;84.00;;;;;;5077062;28;20024;-81
2022/07/31 12:02:43;;;;;;;14.95;10.35;;;24.70;83.60;;;;;;5059154;28;20127;-81
2022/07/31 12:05:12;;;;;;;10.93;9.13;;;24.90;82.70;;;;;;5076861;28;20070;-82
2022/07/31 12:07:41;;;;;;;10.38;8.25;;;25.00;81.90;;;;;;5076827;28;20090;-85
2022/07/31 12:10:10;;;;;;;11.32;8.77;;;25.00;81.30;;;;;;5042433;28;20055;-82
2022/07/31 12:12:36;;;;;;;11.20;8.90;;;24.90;80.00;;;;;;5042343;28;20033;-83
2022/07/31 12:15:16;;;;;;;8.68;7.22;;;24.80;79.80;;;;;;5042126;28;20043;-83
2022/07/31 12:17:41;;;;;;;8.82;7.15;;;24.70;79.70;;;;;;5058676;28;20031;-83
2022/07/31 12:20:08;;;;;;;9.93;8.02;;;24.70;79.90;;;;;;5042132;28;20032;-85
2022/07/31 12:22:34;;;;;;;8.10;7.03;;;24.60;79.70;;;;;;5076665;28;20044;-83
2022/07/31 12:25:00;;;;;;;8.93;7.25;;;24.60;79.90;;;;;;5058774;28;20433;-84
2022/07/31 12:27:26;;;;;;;9.38;7.15;;;24.60;79.80;;;;;;5058392;28;20167;-82
2022/07/31 12:29:52;;;;;;;9.10;6.47;;;24.70;79.80;;;;;;5025719;28;20046;-84
2022/07/31 12:32:25;;;;;;;8.15;6.82;;;24.70;79.70;;;;;;5058670;28;20029;-83
2022/07/31 12:35:01;;;;;;;;;;;24.60;79.70;;;;;;5059185;28;20023;-83
2022/07/31 12:37:28;;;;;;;8.48;6.32;;;24.60;79.60;;;;;;5058482;28;20327;-82
2022/07/31 12:39:54;;;;;;;6.90;5.22;;;24.50;79.60;;;;;;5058459;28;20464;-83
2022/07/31 12:42:29;;;;;;;9.55;6.18;;;24.50;79.70;;;;;;5076270;28;20371;-83
2022/07/31 12:44:57;;;;;;;9.23;6.30;;;24.40;79.90;;;;;;5058413;28;20540;-84
2022/07/31 12:47:28;;;;;;;8.23;5.70;;;24.30;79.90;;;;;;5058267;28;20025;-83